createdAt,value
2023-05-08T00:00:28.279Z,101777.56
2023-05-08T00:01:31.560Z,101780.25
2023-05-08T00:02:33.907Z,101771.38
2023-05-08T00:03:36.454Z,101780.25
2023-05-08T00:04:38.828Z,101773.19
2023-05-08T00:05:42.740Z,101773.09
2023-05-08T00:06:44.939Z,101777.59
2023-05-08T00:07:47.180Z,101777.56
2023-05-08T00:08:49.615Z,101781.09
2023-05-08T00:09:51.886Z,101778.41
2023-05-08T00:10:54.282Z,101776.59
2023-05-08T00:11:56.477Z,101780.13
2023-05-08T00:12:59.263Z,101772.09
2023-05-08T00:14:01.492Z,101768.53
2023-05-08T00:15:04.725Z,101768.47
2023-05-08T00:16:11.779Z,101765.94
2023-05-08T00:17:14.176Z,101773.88
2023-05-08T00:18:16.651Z,101773.06
2023-05-08T00:19:18.856Z,101772.16
2023-05-08T00:20:21.206Z,101776.59
2023-05-08T00:21:23.789Z,101765.06
2023-05-08T00:22:25.977Z,101773.03
2023-05-08T00:23:28.180Z,101768.53
2023-05-08T00:24:30.523Z,101768.53
2023-05-08T00:25:32.826Z,101771.19
2023-05-08T00:26:35.472Z,101773.88
2023-05-08T00:27:37.856Z,101771.19
2023-05-08T00:28:40.052Z,101773.03
2023-05-08T00:29:43.062Z,101773.09
2023-05-08T00:30:45.596Z,101773.09
2023-05-08T00:31:48.105Z,101774.88
2023-05-08T00:32:50.653Z,101773.94
2023-05-08T00:33:52.921Z,101772.22
2023-05-08T00:34:55.212Z,101778.38
2023-05-08T00:36:05.779Z,101770.38
2023-05-08T00:37:08.077Z,101776.63
2023-05-08T00:38:11.180Z,101771.25
2023-05-08T00:39:13.462Z,101771.28
2023-05-08T00:40:16.143Z,101770.41
2023-05-08T00:41:18.693Z,101782.84
2023-05-08T00:42:21.235Z,101771.31
2023-05-08T00:43:26.112Z,101778.44
2023-05-08T00:44:28.305Z,101771.34
2023-05-08T00:45:37.271Z,101781.13
2023-05-08T00:46:40.842Z,101781.97
2023-05-08T00:47:43.424Z,101779.34
2023-05-08T00:48:47.158Z,101782.00
2023-05-08T00:49:49.812Z,101783.78
2023-05-08T00:50:54.267Z,101779.38
2023-05-08T00:51:56.969Z,101785.53
2023-05-08T00:53:01.876Z,101775.81
2023-05-08T00:54:04.443Z,101777.53
2023-05-08T00:55:07.252Z,101789.09
2023-05-08T00:56:15.222Z,101785.50
2023-05-08T00:57:18.705Z,101782.84
2023-05-08T00:58:22.753Z,101782.81
2023-05-08T00:59:26.988Z,101783.72
2023-05-08T01:00:29.409Z,101782.81
2023-05-08T01:01:34.080Z,101785.47
2023-05-08T01:02:36.833Z,101788.16
2023-05-08T01:03:39.696Z,101784.63
2023-05-08T01:04:44.567Z,101789.97
2023-05-08T01:05:46.810Z,101788.19
2023-05-08T01:06:48.977Z,101790.91
2023-05-08T01:07:51.553Z,101805.09
2023-05-08T01:08:53.970Z,101798.00
2023-05-08T01:09:56.208Z,101799.72
2023-05-08T01:11:29.555Z,101795.25
2023-05-08T01:12:47.677Z,101793.50
2023-05-08T01:13:56.131Z,101804.19
2023-05-08T01:15:14.509Z,101795.31
2023-05-08T01:16:51.983Z,101790.84
2023-05-08T01:18:10.082Z,101792.66
2023-05-08T01:19:43.146Z,101797.06
2023-05-08T01:21:06.837Z,101795.38
2023-05-08T01:22:39.033Z,101798.03
2023-05-08T01:24:04.850Z,101797.13
2023-05-08T01:25:16.820Z,101793.59
2023-05-08T01:26:37.173Z,101792.72
2023-05-08T01:27:51.526Z,101790.97
2023-05-08T01:29:27.770Z,101792.75
2023-05-08T01:30:48.379Z,101787.44
2023-05-08T01:31:59.781Z,101794.50
2023-05-08T01:33:08.377Z,101791.88
2023-05-08T01:34:25.395Z,101798.03
2023-05-08T01:35:38.706Z,101793.66
2023-05-08T01:37:19.498Z,101798.94
2023-05-08T01:38:32.104Z,101799.81
2023-05-08T01:39:55.907Z,101798.94
2023-05-08T01:41:10.510Z,101803.38
2023-05-08T01:42:23.691Z,101806.03
2023-05-08T01:43:33.634Z,101805.16
2023-05-08T01:44:41.602Z,101804.28
2023-05-08T01:45:47.080Z,101806.91
2023-05-08T01:46:51.085Z,101800.72
2023-05-08T01:48:08.713Z,101798.06
2023-05-08T01:49:16.161Z,101798.06
2023-05-08T01:50:30.559Z,101794.53
2023-05-08T01:51:40.350Z,101792.75
2023-05-08T01:52:46.874Z,101793.63
2023-05-08T01:53:55.289Z,101799.81
2023-05-08T01:55:04.906Z,101802.47
2023-05-08T01:56:13.748Z,101790.97
2023-05-08T01:57:18.285Z,101792.72
2023-05-08T01:58:24.307Z,101799.81
2023-05-08T01:59:28.533Z,101796.28
2023-05-08T02:00:31.370Z,101793.63
2023-05-08T02:01:34.795Z,101791.84
2023-05-08T02:02:40.105Z,101788.31
2023-05-08T02:03:44.718Z,101788.31
2023-05-08T02:04:48.574Z,101790.06
2023-05-08T02:05:52.515Z,101793.63
2023-05-08T02:06:58.939Z,101781.22
2023-05-08T02:08:03.292Z,101789.19
2023-05-08T02:09:10.771Z,101789.19
2023-05-08T02:10:15.652Z,101778.53
2023-05-08T02:11:18.719Z,101788.25
2023-05-08T02:12:22.498Z,101788.31
2023-05-08T02:13:27.352Z,101788.28
2023-05-08T02:14:31.599Z,101782.09
2023-05-08T02:15:36.684Z,101794.47
2023-05-08T02:16:42.109Z,101793.59
2023-05-08T02:17:48.716Z,101791.81
2023-05-08T02:18:54.026Z,101791.84
2023-05-08T02:19:59.213Z,101786.56
2023-05-08T02:21:04.153Z,101790.97
2023-05-08T02:22:08.687Z,101785.63
2023-05-08T02:23:12.398Z,101782.13
2023-05-08T02:24:15.775Z,101790.00
2023-05-08T02:25:19.134Z,101783.81
2023-05-08T02:26:23.352Z,101786.44
2023-05-08T02:27:27.920Z,101784.66
2023-05-08T02:28:33.616Z,101789.97
2023-05-08T02:29:36.854Z,101794.41
2023-05-08T02:30:40.400Z,101788.28
2023-05-08T02:31:45.313Z,101790.00
2023-05-08T02:32:49.244Z,101777.59
2023-05-08T02:33:53.691Z,101785.56
2023-05-08T02:35:03.175Z,101782.03
2023-05-08T02:36:07.448Z,101791.75
2023-05-08T02:37:11.345Z,101785.56
2023-05-08T02:38:15.955Z,101778.47
2023-05-08T02:39:20.617Z,101781.13
2023-05-08T02:40:26.454Z,101786.44
2023-05-08T02:41:32.098Z,101780.28
2023-05-08T02:42:35.036Z,101782.03
2023-05-08T02:43:37.968Z,101782.03
2023-05-08T02:44:40.790Z,101785.59
2023-05-08T02:45:51.481Z,101783.81
2023-05-08T02:47:17.463Z,101784.69
2023-05-08T02:48:28.941Z,101783.88
2023-05-08T02:49:55.210Z,101789.16
2023-05-08T02:51:04.048Z,101788.25
2023-05-08T02:52:17.641Z,101789.19
2023-05-08T02:53:29.799Z,101789.22
2023-05-08T02:54:51.494Z,101788.31
2023-05-08T02:55:58.204Z,101788.31
2023-05-08T02:57:06.504Z,101784.78
2023-05-08T02:58:22.445Z,101784.72
2023-05-08T02:59:34.783Z,101789.13
2023-05-08T03:00:49.672Z,101782.06
2023-05-08T03:01:59.007Z,101788.25
2023-05-08T03:03:13.546Z,101794.44
2023-05-08T03:04:31.911Z,101789.09
2023-05-08T03:05:37.169Z,101792.63
2023-05-08T03:06:45.571Z,101790.84
2023-05-08T03:07:52.911Z,101794.44
2023-05-08T03:09:00.930Z,101795.31
2023-05-08T03:10:08.034Z,101799.75
2023-05-08T03:11:21.674Z,101801.53
2023-05-08T03:12:27.993Z,101798.88
2023-05-08T03:13:34.624Z,101804.16
2023-05-08T03:14:44.418Z,101797.91
2023-05-08T03:16:08.335Z,101804.91
2023-05-08T03:17:16.055Z,101802.28
2023-05-08T03:18:21.392Z,101804.13
2023-05-08T03:19:47.192Z,101810.34
2023-05-08T03:20:54.099Z,101814.81
2023-05-08T03:21:58.927Z,101805.97
2023-05-08T03:23:03.385Z,101809.47
2023-05-08T03:24:07.587Z,101805.88
2023-05-08T03:25:11.680Z,101817.38
2023-05-08T03:26:19.551Z,101812.06
2023-05-08T03:27:23.679Z,101815.59
2023-05-08T03:28:27.856Z,101818.31
2023-05-08T03:29:34.169Z,101814.72
2023-05-08T03:30:41.926Z,101820.94
2023-05-08T03:31:48.993Z,101815.69
2023-05-08T03:32:53.312Z,101819.28
2023-05-08T03:33:56.641Z,101818.41
2023-05-08T03:34:59.948Z,101821.03
2023-05-08T03:36:02.888Z,101819.31
2023-05-08T03:37:05.934Z,101821.91
2023-05-08T03:38:08.817Z,101822.84
2023-05-08T03:39:11.582Z,101827.19
2023-05-08T03:40:15.516Z,101820.09
2023-05-08T03:41:18.102Z,101828.06
2023-05-08T03:42:22.999Z,101827.19
2023-05-08T03:43:26.074Z,101822.69
2023-05-08T03:44:30.598Z,101823.66
2023-05-08T03:45:36.430Z,101826.31
2023-05-08T03:46:39.553Z,101830.75
2023-05-08T03:47:44.474Z,101821.91
2023-05-08T03:48:49.286Z,101823.72
2023-05-08T03:49:53.826Z,101822.84
2023-05-08T03:50:56.962Z,101828.19
2023-05-08T03:51:59.435Z,101828.16
2023-05-08T03:53:01.866Z,101826.34
2023-05-08T03:54:04.470Z,101830.75
2023-05-08T03:55:07.270Z,101826.31
2023-05-08T03:56:10.075Z,101828.94
2023-05-08T03:57:12.596Z,101831.59
2023-05-08T03:58:21.603Z,101835.06
2023-05-08T04:00:01.322Z,101835.97
2023-05-08T04:01:41.840Z,101833.28
2023-05-08T04:03:05.470Z,101828.88
2023-05-08T04:04:10.501Z,101829.75
2023-05-08T04:05:43.528Z,101828.88
2023-05-08T04:07:08.457Z,101828.91
2023-05-08T04:08:19.684Z,101827.19
2023-05-08T04:09:50.047Z,101837.75
2023-05-08T04:11:18.118Z,101835.09
2023-05-08T04:12:37.102Z,101838.69
2023-05-08T04:13:48.803Z,101834.28
2023-05-08T04:15:01.582Z,101838.69
2023-05-08T04:16:13.824Z,101839.53
2023-05-08T04:17:36.249Z,101836.03
2023-05-08T04:18:45.908Z,101845.81
2023-05-08T04:19:56.046Z,101844.03
2023-05-08T04:21:01.192Z,101841.34
2023-05-08T04:22:07.517Z,101838.66
2023-05-08T04:23:15.335Z,101850.19
2023-05-08T04:24:19.474Z,101841.34
2023-05-08T04:25:22.485Z,101839.63
2023-05-08T04:26:25.774Z,101853.75
2023-05-08T04:27:29.300Z,101845.81
2023-05-08T04:28:32.051Z,101850.19
2023-05-08T04:29:35.110Z,101850.22
2023-05-08T04:30:40.252Z,101851.09
2023-05-08T04:31:43.157Z,101852.03
2023-05-08T04:32:47.090Z,101855.53
2023-05-08T04:33:51.322Z,101854.66
2023-05-08T04:34:55.263Z,101852.97
2023-05-08T04:36:02.041Z,101855.59
2023-05-08T04:37:06.799Z,101855.63
2023-05-08T04:38:09.452Z,101860.06
2023-05-08T04:39:11.843Z,101865.38
2023-05-08T04:40:14.162Z,101862.72
2023-05-08T04:41:17.482Z,101861.84
2023-05-08T04:42:21.052Z,101863.63
2023-05-08T04:43:24.237Z,101866.28
2023-05-08T04:44:26.587Z,101861.84
2023-05-08T04:45:29.001Z,101859.19
2023-05-08T04:46:31.421Z,101868.94
2023-05-08T04:47:33.972Z,101862.72
2023-05-08T04:48:37.085Z,101866.28
2023-05-08T04:49:39.368Z,101861.81
2023-05-08T04:50:41.663Z,101868.94
2023-05-08T04:51:44.743Z,101867.16
2023-05-08T04:52:46.934Z,101867.09
2023-05-08T04:53:49.402Z,101876.88
2023-05-08T04:54:51.742Z,101874.13
2023-05-08T04:55:54.007Z,101868.84
2023-05-08T04:56:56.251Z,101872.44
2023-05-08T04:57:58.616Z,101876.00
2023-05-08T04:59:00.964Z,101872.44
2023-05-08T05:00:05.293Z,101884.84
2023-05-08T05:01:11.213Z,101877.78
2023-05-08T05:02:13.567Z,101878.69
2023-05-08T05:03:15.873Z,101872.47
2023-05-08T05:04:18.790Z,101878.69
2023-05-08T05:05:21.039Z,101882.22
2023-05-08T05:06:23.774Z,101879.56
2023-05-08T05:07:26.020Z,101877.78
2023-05-08T05:08:28.662Z,101875.97
2023-05-08T05:09:36.844Z,101880.41
2023-05-08T05:10:40.094Z,101873.34
2023-05-08T05:11:43.257Z,101879.53
2023-05-08T05:12:45.562Z,101874.22
2023-05-08T05:13:47.872Z,101879.53
2023-05-08T05:14:50.313Z,101883.97
2023-05-08T05:15:54.452Z,101882.25
2023-05-08T05:16:57.673Z,101882.25
2023-05-08T05:18:00.171Z,101886.66
2023-05-08T05:19:02.731Z,101887.53
2023-05-08T05:20:06.182Z,101891.09
2023-05-08T05:21:08.845Z,101890.19
2023-05-08T05:22:11.273Z,101896.41
2023-05-08T05:23:13.541Z,101892.88
2023-05-08T05:24:15.842Z,101893.75
2023-05-08T05:25:18.047Z,101891.09
2023-05-08T05:26:21.692Z,101895.53
2023-05-08T05:27:24.813Z,101890.22
2023-05-08T05:28:27.455Z,101889.34
2023-05-08T05:29:30.293Z,101891.09
2023-05-08T05:30:32.496Z,101888.44
2023-05-08T05:31:35.282Z,101886.63
2023-05-08T05:32:38.064Z,101885.75
2023-05-08T05:33:40.896Z,101895.50
2023-05-08T05:34:43.494Z,101891.06
2023-05-08T05:35:45.702Z,101896.34
2023-05-08T05:36:48.305Z,101891.88
2023-05-08T05:37:50.923Z,101884.78
2023-05-08T05:38:53.299Z,101896.31
2023-05-08T05:39:55.535Z,101892.69
2023-05-08T05:40:57.889Z,101898.00
2023-05-08T05:42:00.226Z,101889.16
2023-05-08T05:43:02.723Z,101890.03
2023-05-08T05:44:05.300Z,101892.66
2023-05-08T05:45:08.053Z,101897.88
2023-05-08T05:46:11.125Z,101886.31
2023-05-08T05:47:15.200Z,101893.41
2023-05-08T05:48:17.471Z,101888.94
2023-05-08T05:49:20.491Z,101892.63
2023-05-08T05:50:22.892Z,101888.94
2023-05-08T05:51:27.633Z,101891.31
2023-05-08T05:52:30.592Z,101896.22
2023-05-08T05:53:33.141Z,101898.50
2023-05-08T05:54:35.593Z,101895.56
2023-05-08T05:55:37.914Z,101891.94
2023-05-08T05:56:40.107Z,101891.47
2023-05-08T05:57:42.625Z,101893.69
2023-05-08T05:58:45.485Z,101903.06
2023-05-08T05:59:48.075Z,101894.81
2023-05-08T06:00:50.278Z,101897.50
2023-05-08T06:01:52.487Z,101902.16
2023-05-08T06:02:54.821Z,101898.94
2023-05-08T06:03:57.598Z,101899.09
2023-05-08T06:05:00.629Z,101896.59
2023-05-08T06:06:03.347Z,101898.19
2023-05-08T06:07:05.591Z,101890.22
2023-05-08T06:08:08.480Z,101886.84
2023-05-08T06:09:10.940Z,101895.75
2023-05-08T06:10:13.363Z,101882.09
2023-05-08T06:11:15.789Z,101890.63
2023-05-08T06:12:18.795Z,101886.97
2023-05-08T06:13:21.375Z,101889.41
2023-05-08T06:14:24.558Z,101887.66
2023-05-08T06:15:26.846Z,101893.94
2023-05-08T06:16:30.803Z,101892.06
2023-05-08T06:17:33.120Z,101887.38
2023-05-08T06:18:35.545Z,101886.06
2023-05-08T06:19:37.853Z,101891.06
2023-05-08T06:20:40.339Z,101899.00
2023-05-08T06:21:42.596Z,101891.06
2023-05-08T06:22:44.808Z,101889.66
2023-05-08T06:23:48.310Z,101901.88
2023-05-08T06:24:53.455Z,101899.75
2023-05-08T06:25:56.197Z,101894.38
2023-05-08T06:26:58.902Z,101905.03
2023-05-08T06:28:01.301Z,101894.25
2023-05-08T06:29:03.515Z,101890.50
2023-05-08T06:30:10.606Z,101895.47
2023-05-08T06:31:13.058Z,101894.91
2023-05-08T06:32:15.383Z,101891.41
2023-05-08T06:33:18.790Z,101895.63
2023-05-08T06:34:21.097Z,101893.22
2023-05-08T06:35:23.335Z,101894.47
2023-05-08T06:36:27.122Z,101889.88
2023-05-08T06:37:29.606Z,101891.13
2023-05-08T06:38:32.507Z,101880.84
2023-05-08T06:39:34.752Z,101885.81
2023-05-08T06:40:36.940Z,101893.69
2023-05-08T06:41:39.213Z,101886.81
2023-05-08T06:42:41.778Z,101890.84
2023-05-08T06:43:44.129Z,101888.09
2023-05-08T06:44:46.349Z,101900.31
2023-05-08T06:45:48.563Z,101889.16
2023-05-08T06:46:50.834Z,101882.72
2023-05-08T06:47:53.414Z,101887.53
2023-05-08T06:48:55.931Z,101892.97
2023-05-08T06:49:58.409Z,101894.38
2023-05-08T06:51:00.938Z,101886.28
2023-05-08T06:52:03.353Z,101902.50
2023-05-08T06:53:05.576Z,101883.00
2023-05-08T06:54:08.537Z,101897.69
2023-05-08T06:55:10.812Z,101891.13
2023-05-08T06:56:13.357Z,101884.94
2023-05-08T06:57:16.223Z,101886.78
2023-05-08T06:58:18.466Z,101887.22
2023-05-08T06:59:23.410Z,101884.97
2023-05-08T07:00:26.042Z,101878.97
2023-05-08T07:01:28.336Z,101887.66
2023-05-08T07:02:31.626Z,101885.38
2023-05-08T07:03:33.907Z,101894.50
2023-05-08T07:04:37.240Z,101884.91
2023-05-08T07:05:39.465Z,101895.44
2023-05-08T07:06:41.616Z,101882.81
2023-05-08T07:07:43.872Z,101884.50
2023-05-08T07:08:46.264Z,101894.53
2023-05-08T07:09:48.611Z,101888.97
2023-05-08T07:10:50.861Z,101892.34
2023-05-08T07:11:53.265Z,101892.09
2023-05-08T07:12:55.424Z,101881.69
2023-05-08T07:13:57.830Z,101893.84
2023-05-08T07:15:03.520Z,101890.34
2023-05-08T07:16:11.157Z,101889.69
2023-05-08T07:17:13.450Z,101869.13
2023-05-08T07:18:15.926Z,101891.66
2023-05-08T07:19:18.809Z,101888.16
2023-05-08T07:20:24.249Z,101893.84
2023-05-08T07:21:26.508Z,101895.56
2023-05-08T07:22:28.813Z,101892.53
2023-05-08T07:23:31.626Z,101888.16
2023-05-08T07:24:33.955Z,101892.75
2023-05-08T07:25:36.669Z,101895.19
2023-05-08T07:26:38.906Z,101882.72
2023-05-08T07:27:41.107Z,101896.47
2023-05-08T07:28:43.273Z,101887.13
2023-05-08T07:29:45.453Z,101886.06
2023-05-08T07:30:47.859Z,101893.84
2023-05-08T07:31:52.046Z,101889.41
2023-05-08T07:32:54.434Z,101900.88
2023-05-08T07:33:56.692Z,101904.19
2023-05-08T07:34:59.212Z,101896.03
2023-05-08T07:36:01.620Z,101889.41
2023-05-08T07:37:04.046Z,101885.13
2023-05-08T07:38:06.282Z,101893.41
2023-05-08T07:39:08.447Z,101882.75
2023-05-08T07:40:10.900Z,101889.56
2023-05-08T07:41:13.358Z,101888.56
2023-05-08T07:42:15.602Z,101886.81
2023-05-08T07:43:17.818Z,101901.69
2023-05-08T07:44:20.124Z,101889.88
2023-05-08T07:45:22.514Z,101889.44
2023-05-08T07:46:25.482Z,101895.81
2023-05-08T07:47:29.120Z,101891.22
2023-05-08T07:48:31.315Z,101888.53
2023-05-08T07:49:33.625Z,101896.41
2023-05-08T07:50:36.478Z,101886.72
2023-05-08T07:51:40.197Z,101897.44
2023-05-08T07:52:42.554Z,101899.78
2023-05-08T07:53:44.900Z,101892.69
2023-05-08T07:54:47.125Z,101894.47
2023-05-08T07:55:49.584Z,101902.91
2023-05-08T07:56:52.133Z,101901.41
2023-05-08T07:57:54.345Z,101898.63
2023-05-08T07:58:56.998Z,101892.59
2023-05-08T08:00:02.360Z,101906.59
2023-05-08T08:01:18.043Z,101899.38
2023-05-08T08:02:20.512Z,101907.56
2023-05-08T08:03:22.850Z,101891.94
2023-05-08T08:04:25.339Z,101903.81
2023-05-08T08:05:27.998Z,101898.38
2023-05-08T08:06:30.529Z,101902.50
2023-05-08T08:07:33.111Z,101891.19
2023-05-08T08:08:35.293Z,101895.72
2023-05-08T08:09:37.445Z,101892.41
2023-05-08T08:10:40.012Z,101901.81
2023-05-08T08:11:42.231Z,101905.84
2023-05-08T08:12:44.692Z,101890.50
2023-05-08T08:13:46.903Z,101887.75
2023-05-08T08:14:49.057Z,101902.53
2023-05-08T08:15:52.013Z,101899.22
2023-05-08T08:16:54.317Z,101892.13
2023-05-08T08:17:56.954Z,101892.41
2023-05-08T08:18:59.610Z,101879.50
2023-05-08T08:20:02.066Z,101884.34
2023-05-08T08:21:07.976Z,101890.00
2023-05-08T08:22:10.259Z,101892.34
2023-05-08T08:23:12.420Z,101888.69
2023-05-08T08:24:14.845Z,101894.41
2023-05-08T08:25:18.044Z,101880.38
2023-05-08T08:26:20.213Z,101886.94
2023-05-08T08:27:23.198Z,101888.38
2023-05-08T08:28:25.388Z,101885.34
2023-05-08T08:29:27.626Z,101881.75
2023-05-08T08:30:30.232Z,101873.09
2023-05-08T08:31:32.469Z,101883.63
2023-05-08T08:32:34.817Z,101880.25
2023-05-08T08:33:37.210Z,101876.31
2023-05-08T08:34:39.518Z,101886.06
2023-05-08T08:35:41.908Z,101865.78
2023-05-08T08:36:44.132Z,101872.69
2023-05-08T08:37:46.300Z,101884.56
2023-05-08T08:38:48.671Z,101873.97
2023-05-08T08:39:50.810Z,101887.84
2023-05-08T08:40:54.587Z,101884.69
2023-05-08T08:41:57.027Z,101880.19
2023-05-08T08:42:59.316Z,101879.97
2023-05-08T08:44:01.625Z,101880.06
2023-05-08T08:45:04.389Z,101876.88
2023-05-08T08:46:13.386Z,101882.78
2023-05-08T08:47:17.930Z,101889.22
2023-05-08T08:48:21.809Z,101878.50
2023-05-08T08:49:36.412Z,101892.47
2023-05-08T08:50:46.301Z,101880.94
2023-05-08T08:51:55.991Z,101876.03
2023-05-08T08:53:22.375Z,101890.06
2023-05-08T08:54:27.998Z,101884.59
2023-05-08T08:55:32.664Z,101870.28
2023-05-08T08:56:38.171Z,101875.78
2023-05-08T08:58:05.639Z,101877.09
2023-05-08T08:59:08.912Z,101877.53
2023-05-08T09:00:12.268Z,101873.19
2023-05-08T09:01:17.917Z,101874.97
2023-05-08T09:02:22.514Z,101874.97
2023-05-08T09:03:25.473Z,101870.28
2023-05-08T09:04:29.605Z,101861.63
2023-05-08T09:05:32.924Z,101867.16
2023-05-08T09:06:38.649Z,101863.66
2023-05-08T09:07:41.853Z,101870.78
2023-05-08T09:08:45.048Z,101860.56
2023-05-08T09:09:48.707Z,101861.66
2023-05-08T09:10:53.232Z,101877.97
2023-05-08T09:11:55.682Z,101877.63
2023-05-08T09:12:57.923Z,101892.00
2023-05-08T09:14:00.523Z,101873.41
2023-05-08T09:15:03.113Z,101862.03
2023-05-08T09:16:05.818Z,101860.94
2023-05-08T09:17:09.664Z,101860.41
2023-05-08T09:18:12.499Z,101861.25
2023-05-08T09:19:16.432Z,101863.13
2023-05-08T09:20:19.269Z,101876.28
2023-05-08T09:21:23.288Z,101864.72
2023-05-08T09:22:26.476Z,101868.00
2023-05-08T09:23:28.880Z,101852.56
2023-05-08T09:24:59.015Z,101869.59
2023-05-08T09:26:01.579Z,101870.13
2023-05-08T09:27:05.530Z,101870.13
2023-05-08T09:28:22.175Z,101870.97
2023-05-08T09:29:24.729Z,101879.94
2023-05-08T09:30:26.882Z,101869.25
2023-05-08T09:31:42.615Z,101861.50
2023-05-08T09:32:45.758Z,101860.56
2023-05-08T09:33:48.128Z,101859.69
2023-05-08T09:34:53.767Z,101861.19
2023-05-08T09:35:57.379Z,101864.72
2023-05-08T09:37:06.014Z,101855.69
2023-05-08T09:38:08.227Z,101855.78
2023-05-08T09:39:13.983Z,101858.38
2023-05-08T09:40:21.633Z,101860.38
2023-05-08T09:41:24.611Z,101852.91
2023-05-08T09:42:38.023Z,101854.41
2023-05-08T09:43:40.691Z,101853.25
2023-05-08T09:44:49.477Z,101850.25
2023-05-08T09:45:51.816Z,101856.69
2023-05-08T09:47:17.308Z,101852.56
2023-05-08T09:48:19.469Z,101850.16
2023-05-08T09:49:21.932Z,101849.84
2023-05-08T09:50:25.367Z,101847.03
2023-05-08T09:51:29.788Z,101870.44
2023-05-08T09:52:33.627Z,101856.13
2023-05-08T09:53:35.837Z,101849.09
2023-05-08T09:54:38.118Z,101851.66
2023-05-08T09:55:47.776Z,101847.34
2023-05-08T09:56:50.030Z,101847.28
2023-05-08T09:57:58.167Z,101861.19
2023-05-08T09:59:02.176Z,101857.13
2023-05-08T10:00:13.058Z,101846.03
2023-05-08T10:01:36.098Z,101857.34
2023-05-08T10:02:41.064Z,101848.25
2023-05-08T10:03:50.784Z,101844.66
2023-05-08T10:04:53.057Z,101850.56
2023-05-08T10:05:55.601Z,101845.31
2023-05-08T10:06:58.820Z,101843.06
2023-05-08T10:08:23.656Z,101850.72
2023-05-08T10:09:27.387Z,101844.97
2023-05-08T10:10:33.270Z,101842.75
2023-05-08T10:11:36.088Z,101831.41
2023-05-08T10:12:40.349Z,101831.53
2023-05-08T10:13:43.948Z,101839.16
2023-05-08T10:14:46.929Z,101846.84
2023-05-08T10:15:54.583Z,101848.44
2023-05-08T10:17:00.076Z,101838.69
2023-05-08T10:18:07.082Z,101835.34
2023-05-08T10:19:14.770Z,101841.63
2023-05-08T10:20:21.484Z,101837.28
2023-05-08T10:21:26.000Z,101831.44
2023-05-08T10:22:29.582Z,101834.97
2023-05-08T10:23:34.565Z,101835.56
2023-05-08T10:24:41.608Z,101827.34
2023-05-08T10:25:46.712Z,101832.66
2023-05-08T10:27:09.944Z,101828.22
2023-05-08T10:28:35.740Z,101826.28
2023-05-08T10:29:53.740Z,101821.28
2023-05-08T10:31:00.877Z,101821.69
2023-05-08T10:32:07.998Z,101820.69
2023-05-08T10:33:11.044Z,101819.81
2023-05-08T10:34:18.386Z,101815.03
2023-05-08T10:35:21.793Z,101815.50
2023-05-08T10:36:24.112Z,101815.22
2023-05-08T10:37:29.899Z,101815.13
2023-05-08T10:38:33.387Z,101820.09
2023-05-08T10:39:36.340Z,101809.41
2023-05-08T10:40:38.986Z,101816.03
2023-05-08T10:41:41.720Z,101807.84
2023-05-08T10:42:45.172Z,101810.84
2023-05-08T10:43:48.744Z,101814.16
2023-05-08T10:44:52.701Z,101803.75
2023-05-08T10:45:58.091Z,101801.19
2023-05-08T10:47:19.273Z,101816.25
2023-05-08T10:48:54.099Z,101809.13
2023-05-08T10:50:33.822Z,101805.94
2023-05-08T10:51:40.951Z,101813.09
2023-05-08T10:53:21.089Z,101811.41
2023-05-08T10:54:59.117Z,101804.81
2023-05-08T10:56:01.486Z,101817.81
2023-05-08T10:57:11.040Z,101806.56
2023-05-08T10:58:15.776Z,101799.63
2023-05-08T10:59:23.811Z,101799.16
2023-05-08T11:00:26.217Z,101798.88
2023-05-08T11:01:28.558Z,101807.91
2023-05-08T11:02:32.831Z,101803.13
2023-05-08T11:03:48.488Z,101800.06
2023-05-08T11:04:50.799Z,101798.25
2023-05-08T11:05:54.074Z,101795.59
2023-05-08T11:06:59.069Z,101789.69
2023-05-08T11:08:01.435Z,101787.81
2023-05-08T11:09:04.007Z,101789.34
2023-05-08T11:10:14.219Z,101799.97
2023-05-08T11:11:31.559Z,101785.19
2023-05-08T11:12:36.249Z,101779.78
2023-05-08T11:13:40.315Z,101787.19
2023-05-08T11:14:44.775Z,101792.69
2023-05-08T11:16:02.672Z,101784.75
2023-05-08T11:17:05.907Z,101787.47
2023-05-08T11:18:11.875Z,101789.00
2023-05-08T11:19:25.200Z,101792.34
2023-05-08T11:20:41.311Z,101781.09
2023-05-08T11:22:12.577Z,101792.44
2023-05-08T11:23:34.126Z,101787.50
2023-05-08T11:24:37.583Z,101786.22
2023-05-08T11:25:44.010Z,101786.66
2023-05-08T11:26:49.366Z,101787.69
2023-05-08T11:27:51.591Z,101785.19
2023-05-08T11:28:54.417Z,101775.53
2023-05-08T11:30:25.969Z,101789.69
2023-05-08T11:31:50.509Z,101779.16
2023-05-08T11:33:12.188Z,101781.78
2023-05-08T11:34:42.447Z,101777.53
2023-05-08T11:36:15.885Z,101780.38
2023-05-08T11:37:20.777Z,101783.88
2023-05-08T11:38:30.064Z,101778.72
2023-05-08T11:39:32.246Z,101769.31
2023-05-08T11:40:48.946Z,101769.47
2023-05-08T11:41:51.161Z,101768.34
2023-05-08T11:42:56.253Z,101774.94
2023-05-08T11:44:14.999Z,101773.72
2023-05-08T11:45:20.089Z,101767.66
2023-05-08T11:46:22.739Z,101767.47
2023-05-08T11:47:31.853Z,101766.31
2023-05-08T11:48:35.930Z,101770.41
2023-05-08T11:49:41.709Z,101770.75
2023-05-08T11:50:44.467Z,101779.34
2023-05-08T11:51:55.211Z,101776.28
2023-05-08T11:52:57.425Z,101778.44
2023-05-08T11:54:03.093Z,101770.50
2023-05-08T11:55:06.969Z,101769.97
2023-05-08T11:56:09.213Z,101767.28
2023-05-08T11:57:11.410Z,101768.53
2023-05-08T11:58:15.014Z,101759.69
2023-05-08T11:59:17.505Z,101758.06
2023-05-08T12:00:22.284Z,101757.75
2023-05-08T12:01:24.695Z,101769.16
2023-05-08T12:02:56.184Z,101767.78
2023-05-08T12:04:14.569Z,101769.16
2023-05-08T12:05:27.068Z,101777.16
2023-05-08T12:06:29.916Z,101763.13
2023-05-08T12:07:32.225Z,101756.91
2023-05-08T12:08:39.111Z,101770.63
2023-05-08T12:09:41.680Z,101761.34
2023-05-08T12:10:47.173Z,101761.97
2023-05-08T12:11:56.963Z,101757.75
2023-05-08T12:13:01.271Z,101753.91
2023-05-08T12:14:03.512Z,101755.91
2023-05-08T12:15:09.806Z,101769.38
2023-05-08T12:16:11.994Z,101762.06
2023-05-08T12:17:18.737Z,101761.31
2023-05-08T12:18:22.539Z,101766.66
2023-05-08T12:19:25.299Z,101760.88
2023-05-08T12:20:27.664Z,101761.03
2023-05-08T12:21:30.002Z,101755.78
2023-05-08T12:22:32.164Z,101754.00
2023-05-08T12:23:34.782Z,101759.72
2023-05-08T12:24:37.307Z,101747.69
2023-05-08T12:25:41.001Z,101755.59
2023-05-08T12:26:43.706Z,101750.13
2023-05-08T12:27:46.309Z,101759.94
2023-05-08T12:28:56.361Z,101753.06
2023-05-08T12:30:00.020Z,101753.00
2023-05-08T12:31:02.619Z,101758.09
2023-05-08T12:32:05.027Z,101755.25
2023-05-08T12:33:07.586Z,101759.94
2023-05-08T12:34:10.167Z,101751.16